sensor_id;sensor_type;location;lat;lon;timestamp;P1;P2;P0
23240;PMS7003;11789;53.482;9.862;2023-02-15T00:01:05;60.00;47.67;28.33
23240;PMS7003;11789;53.482;9.862;2023-02-15T00:03:32;63.33;48.33;28.00
23240;PMS7003;11789;53.482;9.862;2023-02-15T00:05:57;65.33;49.33;27.67
23240;PMS7003;11789;53.482;9.862;2023-02-15T00:08:23;63.67;48.67;28.00
23240;PMS7003;11789;53.482;9.862;2023-02-15T00:10:48;57.33;48.00;27.67
23240;PMS7003;11789;53.482;9.862;2023-02-15T00:13:14;59.33;49.00;28.00
23240;PMS7003;11789;53.482;9.862;2023-02-15T00:15:39;61.33;49.33;28.00
23240;PMS7003;11789;53.482;9.862;2023-02-15T00:18:05;61.33;48.00;25.33
23240;PMS7003;11789;53.482;9.862;2023-02-15T00:20:30;58.33;48.67;27.00
23240;PMS7003;11789;53.482;9.862;2023-02-15T00:22:55;60.67;46.67;26.67
23240;PMS7003;11789;53.482;9.862;2023-02-15T00:25:21;62.67;47.33;28.00
23240;PMS7003;11789;53.482;9.862;2023-02-15T00:27:46;56.00;48.00;28.00
23240;PMS7003;11789;53.482;9.862;2023-02-15T00:30:12;60.67;48.00;28.00
23240;PMS7003;11789;53.482;9.862;2023-02-15T00:32:37;61.67;49.67;28.00
23240;PMS7003;11789;53.482;9.862;2023-02-15T00:35:03;59.33;46.67;28.00
23240;PMS7003;11789;53.482;9.862;2023-02-15T00:37:37;56.67;47.33;27.00
23240;PMS7003;11789;53.482;9.862;2023-02-15T00:40:03;62.67;49.33;27.67
23240;PMS7003;11789;53.482;9.862;2023-02-15T00:42:29;61.00;48.00;28.00
23240;PMS7003;11789;53.482;9.862;2023-02-15T00:44:54;58.00;47.67;27.33
23240;PMS7003;11789;53.482;9.862;2023-02-15T00:47:20;69.67;51.33;27.67
23240;PMS7003;11789;53.482;9.862;2023-02-15T00:49:45;66.00;50.33;28.67
23240;PMS7003;11789;53.482;9.862;2023-02-15T00:52:10;66.67;52.67;29.00
23240;PMS7003;11789;53.482;9.862;2023-02-15T00:54:36;62.00;50.00;27.67
23240;PMS7003;11789;53.482;9.862;2023-02-15T00:57:03;62.00;50.00;28.00
23240;PMS7003;11789;53.482;9.862;2023-02-15T00:59:29;61.67;50.00;29.00
23240;PMS7003;11789;53.482;9.862;2023-02-15T01:01:54;64.67;49.00;29.00
23240;PMS7003;11789;53.482;9.862;2023-02-15T01:04:20;59.33;49.00;27.00
23240;PMS7003;11789;53.482;9.862;2023-02-15T01:06:45;63.00;50.33;27.00
23240;PMS7003;11789;53.482;9.862;2023-02-15T01:09:10;66.67;49.67;26.00
23240;PMS7003;11789;53.482;9.862;2023-02-15T01:11:37;60.67;48.00;27.00
23240;PMS7003;11789;53.482;9.862;2023-02-15T01:14:02;58.33;47.33;27.00
23240;PMS7003;11789;53.482;9.862;2023-02-15T01:16:29;61.33;49.00;28.00
23240;PMS7003;11789;53.482;9.862;2023-02-15T01:18:54;61.33;48.00;28.00
23240;PMS7003;11789;53.482;9.862;2023-02-15T01:21:21;66.67;50.67;28.33
23240;PMS7003;11789;53.482;9.862;2023-02-15T01:23:52;60.67;51.00;28.67
23240;PMS7003;11789;53.482;9.862;2023-02-15T01:26:17;60.00;47.67;28.00
23240;PMS7003;11789;53.482;9.862;2023-02-15T01:28:43;60.67;49.67;27.67
23240;PMS7003;11789;53.482;9.862;2023-02-15T01:31:10;67.33;50.00;28.67
23240;PMS7003;11789;53.482;9.862;2023-02-15T01:33:38;57.33;47.00;25.00
23240;PMS7003;11789;53.482;9.862;2023-02-15T01:36:03;51.33;43.33;24.00
23240;PMS7003;11789;53.482;9.862;2023-02-15T01:38:29;58.33;47.00;26.33
23240;PMS7003;11789;53.482;9.862;2023-02-15T01:40:55;56.33;44.33;25.33
23240;PMS7003;11789;53.482;9.862;2023-02-15T01:43:47;65.00;48.67;27.67
23240;PMS7003;11789;53.482;9.862;2023-02-15T01:46:16;56.67;46.67;26.33
23240;PMS7003;11789;53.482;9.862;2023-02-15T01:48:48;57.00;45.33;27.00
23240;PMS7003;11789;53.482;9.862;2023-02-15T01:51:17;62.67;50.67;27.00
23240;PMS7003;11789;53.482;9.862;2023-02-15T01:53:50;59.33;48.00;23.00
23240;PMS7003;11789;53.482;9.862;2023-02-15T01:56:19;60.67;47.33;27.33
23240;PMS7003;11789;53.482;9.862;2023-02-15T01:58:48;61.00;47.67;28.00
23240;PMS7003;11789;53.482;9.862;2023-02-15T02:01:15;62.33;50.67;28.00
23240;PMS7003;11789;53.482;9.862;2023-02-15T02:06:37;57.33;45.00;27.00
23240;PMS7003;11789;53.482;9.862;2023-02-15T02:09:04;62.67;51.00;28.00
23240;PMS7003;11789;53.482;9.862;2023-02-15T02:11:30;61.00;47.67;28.67
23240;PMS7003;11789;53.482;9.862;2023-02-15T02:13:56;60.33;49.67;27.00
23240;PMS7003;11789;53.482;9.862;2023-02-15T02:19:04;61.00;48.33;28.00
23240;PMS7003;11789;53.482;9.862;2023-02-15T02:22:01;60.33;49.33;26.67
23240;PMS7003;11789;53.482;9.862;2023-02-15T02:41:32;60.00;47.33;26.33
23240;PMS7003;11789;53.482;9.862;2023-02-15T02:44:19;61.67;48.67;27.00
23240;PMS7003;11789;53.482;9.862;2023-02-15T02:46:52;61.00;51.00;28.00
23240;PMS7003;11789;53.482;9.862;2023-02-15T02:49:34;68.67;52.33;28.33
23240;PMS7003;11789;53.482;9.862;2023-02-15T02:52:06;63.00;48.67;28.33
23240;PMS7003;11789;53.482;9.862;2023-02-15T02:54:52;56.00;45.67;28.00
23240;PMS7003;11789;53.482;9.862;2023-02-15T02:57:19;59.33;44.33;27.00
23240;PMS7003;11789;53.482;9.862;2023-02-15T02:59:49;65.00;50.33;27.00
23240;PMS7003;11789;53.482;9.862;2023-02-15T03:02:19;66.33;49.33;27.00
23240;PMS7003;11789;53.482;9.862;2023-02-15T03:04:50;56.00;47.00;26.67
23240;PMS7003;11789;53.482;9.862;2023-02-15T03:07:23;58.67;47.67;27.00
23240;PMS7003;11789;53.482;9.862;2023-02-15T03:09:53;57.67;45.00;25.67
23240;PMS7003;11789;53.482;9.862;2023-02-15T03:12:23;57.00;44.67;25.67
23240;PMS7003;11789;53.482;9.862;2023-02-15T03:14:55;56.00;42.67;26.67
23240;PMS7003;11789;53.482;9.862;2023-02-15T03:17:27;55.33;43.00;26.00
23240;PMS7003;11789;53.482;9.862;2023-02-15T03:19:57;59.00;45.00;26.67
23240;PMS7003;11789;53.482;9.862;2023-02-15T03:22:28;58.00;45.00;27.00
23240;PMS7003;11789;53.482;9.862;2023-02-15T03:27:43;59.00;44.67;23.00
23240;PMS7003;11789;53.482;9.862;2023-02-15T03:30:12;63.67;47.00;25.00
23240;PMS7003;11789;53.482;9.862;2023-02-15T03:32:40;52.33;46.33;24.33
23240;PMS7003;11789;53.482;9.862;2023-02-15T03:35:08;48.33;40.33;23.00
23240;PMS7003;11789;53.482;9.862;2023-02-15T03:40:33;62.00;47.67;27.67
23240;PMS7003;11789;53.482;9.862;2023-02-15T03:45:50;58.33;49.00;27.00
23240;PMS7003;11789;53.482;9.862;2023-02-15T03:48:24;58.67;44.67;24.67
23240;PMS7003;11789;53.482;9.862;2023-02-15T03:50:57;45.00;41.00;24.33
23240;PMS7003;11789;53.482;9.862;2023-02-15T03:53:47;57.67;44.00;26.00
23240;PMS7003;11789;53.482;9.862;2023-02-15T03:56:14;52.00;43.67;24.33
23240;PMS7003;11789;53.482;9.862;2023-02-15T03:58:40;51.33;42.67;24.33
23240;PMS7003;11789;53.482;9.862;2023-02-15T04:04:26;54.00;42.33;23.33
23240;PMS7003;11789;53.482;9.862;2023-02-15T04:06:56;58.67;47.67;25.67
23240;PMS7003;11789;53.482;9.862;2023-02-15T04:09:22;56.33;44.67;24.67
23240;PMS7003;11789;53.482;9.862;2023-02-15T04:12:06;56.33;45.67;25.33
23240;PMS7003;11789;53.482;9.862;2023-02-15T04:14:32;52.33;42.00;24.00
23240;PMS7003;11789;53.482;9.862;2023-02-15T04:17:16;57.67;44.00;25.00
23240;PMS7003;11789;53.482;9.862;2023-02-15T04:19:42;52.00;41.33;22.67
23240;PMS7003;11789;53.482;9.862;2023-02-15T04:22:26;51.00;43.33;25.33
23240;PMS7003;11789;53.482;9.862;2023-02-15T04:25:10;51.67;43.00;25.33
23240;PMS7003;11789;53.482;9.862;2023-02-15T04:27:36;55.67;43.67;22.67
23240;PMS7003;11789;53.482;9.862;2023-02-15T04:30:02;59.67;45.67;25.00
23240;PMS7003;11789;53.482;9.862;2023-02-15T04:32:28;47.33;41.00;25.00
23240;PMS7003;11789;53.482;9.862;2023-02-15T04:34:54;47.33;41.33;25.00
23240;PMS7003;11789;53.482;9.862;2023-02-15T04:37:19;56.00;45.00;27.00
23240;PMS7003;11789;53.482;9.862;2023-02-15T04:39:44;57.33;46.00;25.00
23240;PMS7003;11789;53.482;9.862;2023-02-15T04:42:10;54.33;42.67;27.00
23240;PMS7003;11789;53.482;9.862;2023-02-15T04:44:35;56.00;43.33;26.00
23240;PMS7003;11789;53.482;9.862;2023-02-15T04:47:01;56.00;44.00;25.33
23240;PMS7003;11789;53.482;9.862;2023-02-15T04:49:26;56.00;47.00;25.33
23240;PMS7003;11789;53.482;9.862;2023-02-15T04:51:52;60.00;44.67;27.33
23240;PMS7003;11789;53.482;9.862;2023-02-15T04:54:17;55.67;46.33;25.00
23240;PMS7003;11789;53.482;9.862;2023-02-15T04:56:43;46.33;40.33;24.33
23240;PMS7003;11789;53.482;9.862;2023-02-15T04:59:12;55.33;44.67;26.00
23240;PMS7003;11789;53.482;9.862;2023-02-15T05:01:37;56.00;44.67;25.67
23240;PMS7003;11789;53.482;9.862;2023-02-15T05:04:03;50.00;41.33;23.33
23240;PMS7003;11789;53.482;9.862;2023-02-15T05:06:29;51.67;41.67;23.67
23240;PMS7003;11789;53.482;9.862;2023-02-15T05:08:54;53.33;42.33;26.00
23240;PMS7003;11789;53.482;9.862;2023-02-15T05:11:20;55.67;42.67;25.00
23240;PMS7003;11789;53.482;9.862;2023-02-15T05:13:45;54.00;43.67;25.00
23240;PMS7003;11789;53.482;9.862;2023-02-15T05:16:11;55.33;42.33;25.00
23240;PMS7003;11789;53.482;9.862;2023-02-15T05:18:36;50.33;40.67;24.33
23240;PMS7003;11789;53.482;9.862;2023-02-15T05:21:02;58.00;42.00;23.00
23240;PMS7003;11789;53.482;9.862;2023-02-15T05:23:27;50.00;43.00;24.67
23240;PMS7003;11789;53.482;9.862;2023-02-15T05:25:53;57.33;45.00;24.00
23240;PMS7003;11789;53.482;9.862;2023-02-15T05:28:37;46.00;40.33;23.33
23240;PMS7003;11789;53.482;9.862;2023-02-15T05:33:36;50.00;41.33;24.33
23240;PMS7003;11789;53.482;9.862;2023-02-15T05:36:02;40.00;35.00;16.33
23240;PMS7003;11789;53.482;9.862;2023-02-15T05:38:28;42.33;36.67;20.00
23240;PMS7003;11789;53.482;9.862;2023-02-15T05:40:54;50.67;41.00;20.67
23240;PMS7003;11789;53.482;9.862;2023-02-15T05:43:20;57.33;41.33;23.00
23240;PMS7003;11789;53.482;9.862;2023-02-15T05:45:46;39.33;38.33;19.33
23240;PMS7003;11789;53.482;9.862;2023-02-15T05:48:12;44.33;37.67;24.00
23240;PMS7003;11789;53.482;9.862;2023-02-15T05:50:38;45.67;39.00;23.00
23240;PMS7003;11789;53.482;9.862;2023-02-15T05:53:04;59.67;42.00;23.67
23240;PMS7003;11789;53.482;9.862;2023-02-15T05:55:29;59.00;42.67;24.00
23240;PMS7003;11789;53.482;9.862;2023-02-15T05:57:54;53.33;42.00;25.00
23240;PMS7003;11789;53.482;9.862;2023-02-15T06:00:20;50.67;40.67;23.67
23240;PMS7003;11789;53.482;9.862;2023-02-15T06:02:45;42.00;38.00;20.33
23240;PMS7003;11789;53.482;9.862;2023-02-15T06:05:11;48.33;39.00;23.00
23240;PMS7003;11789;53.482;9.862;2023-02-15T06:07:36;47.67;41.00;25.00
23240;PMS7003;11789;53.482;9.862;2023-02-15T06:10:02;49.67;42.33;24.00
23240;PMS7003;11789;53.482;9.862;2023-02-15T06:12:28;50.00;36.67;23.00
23240;PMS7003;11789;53.482;9.862;2023-02-15T06:14:53;52.33;42.33;25.00
23240;PMS7003;11789;53.482;9.862;2023-02-15T06:17:19;47.67;40.00;22.00
23240;PMS7003;11789;53.482;9.862;2023-02-15T06:19:44;51.00;41.33;21.33
23240;PMS7003;11789;53.482;9.862;2023-02-15T06:22:10;45.33;40.00;23.00
23240;PMS7003;11789;53.482;9.862;2023-02-15T06:24:35;55.00;41.00;24.00
23240;PMS7003;11789;53.482;9.862;2023-02-15T06:27:01;56.00;37.67;19.00
23240;PMS7003;11789;53.482;9.862;2023-02-15T06:29:26;40.00;36.00;23.67
23240;PMS7003;11789;53.482;9.862;2023-02-15T06:31:51;40.00;37.67;22.33
23240;PMS7003;11789;53.482;9.862;2023-02-15T06:34:17;43.67;38.33;21.00
23240;PMS7003;11789;53.482;9.862;2023-02-15T06:36:42;46.33;38.33;21.00
23240;PMS7003;11789;53.482;9.862;2023-02-15T06:39:08;41.67;34.00;19.00
23240;PMS7003;11789;53.482;9.862;2023-02-15T06:41:33;44.67;31.00;16.00
23240;PMS7003;11789;53.482;9.862;2023-02-15T06:43:59;63.33;46.00;28.00
23240;PMS7003;11789;53.482;9.862;2023-02-15T06:46:25;89.50;69.75;42.00
23240;PMS7003;11789;53.482;9.862;2023-02-15T06:48:50;69.50;54.50;33.25
23240;PMS7003;11789;53.482;9.862;2023-02-15T06:51:16;70.50;56.25;32.75
23240;PMS7003;11789;53.482;9.862;2023-02-15T06:53:41;67.25;55.00;33.25
23240;PMS7003;11789;53.482;9.862;2023-02-15T06:56:08;52.33;43.00;25.00
23240;PMS7003;11789;53.482;9.862;2023-02-15T06:58:35;48.00;41.00;25.33
23240;PMS7003;11789;53.482;9.862;2023-02-15T07:01:02;56.00;41.33;21.00
23240;PMS7003;11789;53.482;9.862;2023-02-15T07:03:29;45.00;38.00;24.33
23240;PMS7003;11789;53.482;9.862;2023-02-15T07:05:55;55.67;45.33;28.00
23240;PMS7003;11789;53.482;9.862;2023-02-15T07:08:25;44.67;41.00;24.33
23240;PMS7003;11789;53.482;9.862;2023-02-15T07:10:52;54.00;42.67;24.33
23240;PMS7003;11789;53.482;9.862;2023-02-15T07:13:18;53.33;40.67;24.67
23240;PMS7003;11789;53.482;9.862;2023-02-15T07:15:45;51.00;40.33;25.00
23240;PMS7003;11789;53.482;9.862;2023-02-15T07:18:11;47.67;38.67;24.00
23240;PMS7003;11789;53.482;9.862;2023-02-15T07:20:37;32.00;30.67;21.00
23240;PMS7003;11789;53.482;9.862;2023-02-15T07:23:03;36.00;31.67;21.00
23240;PMS7003;11789;53.482;9.862;2023-02-15T07:25:29;61.33;48.00;26.00
23240;PMS7003;11789;53.482;9.862;2023-02-15T07:27:56;50.33;43.67;28.00
23240;PMS7003;11789;53.482;9.862;2023-02-15T07:30:22;55.33;44.00;24.67
23240;PMS7003;11789;53.482;9.862;2023-02-15T07:32:48;42.00;38.00;23.00
23240;PMS7003;11789;53.482;9.862;2023-02-15T07:35:32;45.33;41.67;24.67
23240;PMS7003;11789;53.482;9.862;2023-02-15T07:37:59;42.67;41.00;23.00
23240;PMS7003;11789;53.482;9.862;2023-02-15T07:40:25;51.33;42.33;24.67
23240;PMS7003;11789;53.482;9.862;2023-02-15T07:42:50;37.33;37.33;24.00
23240;PMS7003;11789;53.482;9.862;2023-02-15T07:45:19;46.33;41.33;25.00
23240;PMS7003;11789;53.482;9.862;2023-02-15T07:47:45;46.67;38.67;23.00
23240;PMS7003;11789;53.482;9.862;2023-02-15T07:50:11;46.00;39.67;23.67
23240;PMS7003;11789;53.482;9.862;2023-02-15T07:52:36;45.33;38.67;23.33
23240;PMS7003;11789;53.482;9.862;2023-02-15T07:55:01;39.67;39.00;24.00
23240;PMS7003;11789;53.482;9.862;2023-02-15T07:57:28;47.67;36.00;23.67
23240;PMS7003;11789;53.482;9.862;2023-02-15T07:59:53;44.33;40.00;24.67
23240;PMS7003;11789;53.482;9.862;2023-02-15T08:02:19;47.00;39.00;21.00
23240;PMS7003;11789;53.482;9.862;2023-02-15T08:04:44;39.33;38.00;24.00
23240;PMS7003;11789;53.482;9.862;2023-02-15T08:07:09;44.67;39.33;22.00
23240;PMS7003;11789;53.482;9.862;2023-02-15T08:09:35;47.00;40.33;25.00
23240;PMS7003;11789;53.482;9.862;2023-02-15T08:12:00;41.33;37.00;24.00
23240;PMS7003;11789;53.482;9.862;2023-02-15T08:14:27;42.33;40.00;25.00
23240;PMS7003;11789;53.482;9.862;2023-02-15T08:16:54;50.33;36.00;21.00
23240;PMS7003;11789;53.482;9.862;2023-02-15T08:19:22;47.00;39.00;21.00
23240;PMS7003;11789;53.482;9.862;2023-02-15T08:21:50;52.00;43.33;25.00
23240;PMS7003;11789;53.482;9.862;2023-02-15T08:24:16;45.67;41.00;24.00
23240;PMS7003;11789;53.482;9.862;2023-02-15T08:26:44;60.00;44.33;24.67
23240;PMS7003;11789;53.482;9.862;2023-02-15T08:29:11;54.33;43.00;26.33
23240;PMS7003;11789;53.482;9.862;2023-02-15T08:31:38;52.67;40.33;25.00
23240;PMS7003;11789;53.482;9.862;2023-02-15T08:34:06;48.00;40.67;25.00
23240;PMS7003;11789;53.482;9.862;2023-02-15T08:36:32;48.00;39.33;25.00
23240;PMS7003;11789;53.482;9.862;2023-02-15T08:38:58;43.00;40.67;25.33
23240;PMS7003;11789;53.482;9.862;2023-02-15T08:41:32;46.33;41.33;25.00
23240;PMS7003;11789;53.482;9.862;2023-02-15T08:44:00;44.67;40.33;22.67
23240;PMS7003;11789;53.482;9.862;2023-02-15T08:46:28;47.33;41.67;25.00
23240;PMS7003;11789;53.482;9.862;2023-02-15T08:48:56;48.67;40.67;25.00
23240;PMS7003;11789;53.482;9.862;2023-02-15T08:51:23;55.33;43.00;25.00
23240;PMS7003;11789;53.482;9.862;2023-02-15T08:53:51;52.33;42.33;25.00
23240;PMS7003;11789;53.482;9.862;2023-02-15T08:56:19;51.33;39.33;24.67
23240;PMS7003;11789;53.482;9.862;2023-02-15T08:58:47;24.67;23.67;1.00
23240;PMS7003;11789;53.482;9.862;2023-02-15T09:01:14;53.67;43.33;26.00
23240;PMS7003;11789;53.482;9.862;2023-02-15T09:03:45;50.00;42.00;25.00
23240;PMS7003;11789;53.482;9.862;2023-02-15T09:06:12;54.67;40.33;23.33
23240;PMS7003;11789;53.482;9.862;2023-02-15T09:08:38;48.67;41.00;25.67
23240;PMS7003;11789;53.482;9.862;2023-02-15T09:11:08;55.67;41.67;25.67
23240;PMS7003;11789;53.482;9.862;2023-02-15T09:13:36;52.00;43.33;25.33
23240;PMS7003;11789;53.482;9.862;2023-02-15T09:16:04;48.67;41.00;25.00
23240;PMS7003;11789;53.482;9.862;2023-02-15T09:18:32;54.67;42.00;25.00
23240;PMS7003;11789;53.482;9.862;2023-02-15T09:21:08;44.33;40.33;24.33
23240;PMS7003;11789;53.482;9.862;2023-02-15T09:23:38;60.67;44.67;27.33
23240;PMS7003;11789;53.482;9.862;2023-02-15T09:26:05;50.33;41.00;25.00
23240;PMS7003;11789;53.482;9.862;2023-02-15T09:28:32;49.00;41.67;23.33
23240;PMS7003;11789;53.482;9.862;2023-02-15T09:31:08;57.00;42.67;24.00
23240;PMS7003;11789;53.482;9.862;2023-02-15T09:33:36;46.00;40.00;24.00
23240;PMS7003;11789;53.482;9.862;2023-02-15T09:36:03;49.33;38.67;24.33
23240;PMS7003;11789;53.482;9.862;2023-02-15T09:38:29;51.00;43.33;27.00
23240;PMS7003;11789;53.482;9.862;2023-02-15T09:41:05;46.00;40.00;23.00
23240;PMS7003;11789;53.482;9.862;2023-02-15T09:43:39;53.67;44.00;27.00
23240;PMS7003;11789;53.482;9.862;2023-02-15T09:48:53;47.67;41.33;27.00
23240;PMS7003;11789;53.482;9.862;2023-02-15T09:51:33;53.00;41.33;26.00
23240;PMS7003;11789;53.482;9.862;2023-02-15T09:54:06;50.00;40.00;24.00
23240;PMS7003;11789;53.482;9.862;2023-02-15T09:56:43;48.00;39.33;24.00
23240;PMS7003;11789;53.482;9.862;2023-02-15T10:02:23;48.33;39.67;24.00
23240;PMS7003;11789;53.482;9.862;2023-02-15T10:08:15;48.67;38.67;24.00
23240;PMS7003;11789;53.482;9.862;2023-02-15T10:16:51;45.33;40.33;24.33
23240;PMS7003;11789;53.482;9.862;2023-02-15T10:19:54;48.33;41.33;25.00
23240;PMS7003;11789;53.482;9.862;2023-02-15T10:22:52;51.00;41.00;26.00
23240;PMS7003;11789;53.482;9.862;2023-02-15T10:25:19;49.67;39.33;24.33
23240;PMS7003;11789;53.482;9.862;2023-02-15T10:27:49;43.67;39.00;26.00
23240;PMS7003;11789;53.482;9.862;2023-02-15T10:33:01;43.67;39.00;25.33
23240;PMS7003;11789;53.482;9.862;2023-02-15T10:38:18;50.33;41.67;25.67
23240;PMS7003;11789;53.482;9.862;2023-02-15T10:54:54;47.67;41.33;26.00
23240;PMS7003;11789;53.482;9.862;2023-02-15T10:57:47;46.67;41.33;26.00
23240;PMS7003;11789;53.482;9.862;2023-02-15T11:00:43;52.00;43.33;26.67
23240;PMS7003;11789;53.482;9.862;2023-02-15T11:06:30;52.00;41.00;24.00
23240;PMS7003;11789;53.482;9.862;2023-02-15T11:09:07;49.00;41.00;26.33
23240;PMS7003;11789;53.482;9.862;2023-02-15T11:11:36;58.00;45.00;25.67
23240;PMS7003;11789;53.482;9.862;2023-02-15T11:14:12;49.00;42.00;26.67
23240;PMS7003;11789;53.482;9.862;2023-02-15T11:16:44;50.00;41.67;25.00
23240;PMS7003;11789;53.482;9.862;2023-02-15T11:19:21;50.00;42.67;25.33
23240;PMS7003;11789;53.482;9.862;2023-02-15T11:21:55;45.00;40.00;25.67
23240;PMS7003;11789;53.482;9.862;2023-02-15T11:24:25;56.00;42.33;26.00
23240;PMS7003;11789;53.482;9.862;2023-02-15T11:26:56;52.33;42.00;26.33
23240;PMS7003;11789;53.482;9.862;2023-02-15T11:29:28;49.67;42.00;26.33
23240;PMS7003;11789;53.482;9.862;2023-02-15T11:32:01;49.67;40.00;25.33
23240;PMS7003;11789;53.482;9.862;2023-02-15T11:34:44;47.33;38.33;24.00
23240;PMS7003;11789;53.482;9.862;2023-02-15T11:42:54;45.00;40.00;26.33
23240;PMS7003;11789;53.482;9.862;2023-02-15T11:47:56;52.33;40.33;25.00
23240;PMS7003;11789;53.482;9.862;2023-02-15T11:50:24;53.00;44.00;25.67
23240;PMS7003;11789;53.482;9.862;2023-02-15T11:52:52;57.67;46.00;26.33
23240;PMS7003;11789;53.482;9.862;2023-02-15T11:55:22;57.33;46.33;27.33
23240;PMS7003;11789;53.482;9.862;2023-02-15T11:57:54;55.33;45.67;27.67
23240;PMS7003;11789;53.482;9.862;2023-02-15T12:00:32;56.67;43.33;27.00
23240;PMS7003;11789;53.482;9.862;2023-02-15T12:03:48;51.33;42.00;26.00
23240;PMS7003;11789;53.482;9.862;2023-02-15T12:06:16;57.33;42.33;26.33
23240;PMS7003;11789;53.482;9.862;2023-02-15T12:08:52;59.33;47.33;31.00
23240;PMS7003;11789;53.482;9.862;2023-02-15T12:11:37;54.00;44.33;25.00
23240;PMS7003;11789;53.482;9.862;2023-02-15T12:14:05;54.67;44.33;27.00
23240;PMS7003;11789;53.482;9.862;2023-02-15T12:16:44;52.00;42.67;26.00
23240;PMS7003;11789;53.482;9.862;2023-02-15T12:19:30;53.67;43.67;26.33
23240;PMS7003;11789;53.482;9.862;2023-02-15T12:22:00;54.67;45.00;27.00
23240;PMS7003;11789;53.482;9.862;2023-02-15T12:24:36;52.33;43.00;25.33
23240;PMS7003;11789;53.482;9.862;2023-02-15T12:27:15;54.00;44.67;27.00
23240;PMS7003;11789;53.482;9.862;2023-02-15T12:29:42;57.00;43.33;27.67
23240;PMS7003;11789;53.482;9.862;2023-02-15T12:32:16;55.67;45.33;29.33
23240;PMS7003;11789;53.482;9.862;2023-02-15T12:35:01;54.00;43.67;27.00
23240;PMS7003;11789;53.482;9.862;2023-02-15T12:37:34;54.67;42.67;26.33
23240;PMS7003;11789;53.482;9.862;2023-02-15T12:40:03;55.00;43.00;26.67
23240;PMS7003;11789;53.482;9.862;2023-02-15T12:42:44;51.67;42.67;26.00
23240;PMS7003;11789;53.482;9.862;2023-02-15T12:50:37;61.33;45.00;29.33
23240;PMS7003;11789;53.482;9.862;2023-02-15T12:53:13;54.00;44.00;27.00
23240;PMS7003;11789;53.482;9.862;2023-02-15T12:55:47;53.33;44.33;27.00
23240;PMS7003;11789;53.482;9.862;2023-02-15T12:58:16;60.33;45.67;29.00
23240;PMS7003;11789;53.482;9.862;2023-02-15T13:00:43;56.00;46.67;29.00
23240;PMS7003;11789;53.482;9.862;2023-02-15T13:03:19;56.00;44.67;27.00
23240;PMS7003;11789;53.482;9.862;2023-02-15T13:05:50;53.33;43.00;26.00
23240;PMS7003;11789;53.482;9.862;2023-02-15T13:08:19;54.00;46.33;27.67
23240;PMS7003;11789;53.482;9.862;2023-02-15T13:13:25;55.00;43.67;27.00
23240;PMS7003;11789;53.482;9.862;2023-02-15T13:15:55;57.00;46.67;27.00
23240;PMS7003;11789;53.482;9.862;2023-02-15T13:18:40;55.33;44.00;27.00
23240;PMS7003;11789;53.482;9.862;2023-02-15T13:21:13;62.67;47.33;28.33
23240;PMS7003;11789;53.482;9.862;2023-02-15T13:23:48;54.67;46.00;28.67
23240;PMS7003;11789;53.482;9.862;2023-02-15T13:26:26;56.00;47.00;29.00
23240;PMS7003;11789;53.482;9.862;2023-02-15T13:28:56;59.33;47.67;29.67
23240;PMS7003;11789;53.482;9.862;2023-02-15T13:31:30;63.00;51.33;31.00
23240;PMS7003;11789;53.482;9.862;2023-02-15T13:34:00;60.00;50.00;30.33
23240;PMS7003;11789;53.482;9.862;2023-02-15T13:42:03;63.67;50.67;30.67
23240;PMS7003;11789;53.482;9.862;2023-02-15T13:47:37;55.33;43.67;29.00
23240;PMS7003;11789;53.482;9.862;2023-02-15T14:01:31;57.33;46.00;27.33
23240;PMS7003;11789;53.482;9.862;2023-02-15T14:18:12;59.33;45.67;28.00
23240;PMS7003;11789;53.482;9.862;2023-02-15T14:21:15;61.00;47.00;29.00
23240;PMS7003;11789;53.482;9.862;2023-02-15T14:23:58;56.67;48.33;29.33
23240;PMS7003;11789;53.482;9.862;2023-02-15T14:26:50;55.33;43.33;27.67
23240;PMS7003;11789;53.482;9.862;2023-02-15T14:31:51;59.33;47.00;28.33
23240;PMS7003;11789;53.482;9.862;2023-02-15T14:34:33;57.33;47.00;29.00
23240;PMS7003;11789;53.482;9.862;2023-02-15T14:37:24;50.67;43.00;26.33
23240;PMS7003;11789;53.482;9.862;2023-02-15T14:40:04;60.67;46.33;29.00
23240;PMS7003;11789;53.482;9.862;2023-02-15T14:48:21;52.67;43.67;26.33
23240;PMS7003;11789;53.482;9.862;2023-02-15T14:50:55;54.33;45.67;26.33
23240;PMS7003;11789;53.482;9.862;2023-02-15T14:59:00;49.67;42.00;25.33
23240;PMS7003;11789;53.482;9.862;2023-02-15T15:01:39;50.67;39.00;24.33
23240;PMS7003;11789;53.482;9.862;2023-02-15T15:04:06;52.67;43.00;25.67
23240;PMS7003;11789;53.482;9.862;2023-02-15T15:06:37;55.33;44.67;25.67
23240;PMS7003;11789;53.482;9.862;2023-02-15T15:09:18;50.67;41.00;26.33
23240;PMS7003;11789;53.482;9.862;2023-02-15T15:11:48;54.00;43.00;27.33
23240;PMS7003;11789;53.482;9.862;2023-02-15T15:17:02;52.33;43.33;26.67
23240;PMS7003;11789;53.482;9.862;2023-02-15T15:22:18;47.33;42.00;25.33
23240;PMS7003;11789;53.482;9.862;2023-02-15T15:24:58;50.67;41.67;25.00
23240;PMS7003;11789;53.482;9.862;2023-02-15T15:27:48;52.00;43.00;27.00
23240;PMS7003;11789;53.482;9.862;2023-02-15T15:35:27;56.00;46.00;26.33
23240;PMS7003;11789;53.482;9.862;2023-02-15T15:40:55;59.33;46.00;28.67
23240;PMS7003;11789;53.482;9.862;2023-02-15T15:49:34;63.33;48.33;30.00
23240;PMS7003;11789;53.482;9.862;2023-02-15T15:52:07;57.33;48.00;28.67
23240;PMS7003;11789;53.482;9.862;2023-02-15T15:54:43;56.00;47.00;29.00
23240;PMS7003;11789;53.482;9.862;2023-02-15T15:57:16;58.33;49.33;30.00
23240;PMS7003;11789;53.482;9.862;2023-02-15T15:59:52;57.33;47.00;30.00
23240;PMS7003;11789;53.482;9.862;2023-02-15T16:02:19;60.33;48.67;29.33
23240;PMS7003;11789;53.482;9.862;2023-02-15T16:04:45;54.67;44.33;27.67
23240;PMS7003;11789;53.482;9.862;2023-02-15T16:07:23;61.33;49.67;30.00
23240;PMS7003;11789;53.482;9.862;2023-02-15T16:09:57;59.00;47.33;30.67
23240;PMS7003;11789;53.482;9.862;2023-02-15T16:12:26;57.33;46.67;28.67
23240;PMS7003;11789;53.482;9.862;2023-02-15T16:14:54;63.00;49.33;30.33
23240;PMS7003;11789;53.482;9.862;2023-02-15T16:17:25;61.33;48.00;31.00
23240;PMS7003;11789;53.482;9.862;2023-02-15T16:20:36;65.33;52.00;30.33
23240;PMS7003;11789;53.482;9.862;2023-02-15T16:22:53;66.33;48.33;30.33
23240;PMS7003;11789;53.482;9.862;2023-02-15T16:28:07;57.33;47.33;28.67
23240;PMS7003;11789;53.482;9.862;2023-02-15T16:30:36;61.00;45.67;28.00
23240;PMS7003;11789;53.482;9.862;2023-02-15T16:35:32;60.67;49.00;30.00
23240;PMS7003;11789;53.482;9.862;2023-02-15T16:37:58;66.67;51.67;31.67
23240;PMS7003;11789;53.482;9.862;2023-02-15T16:42:57;53.67;46.67;29.33
23240;PMS7003;11789;53.482;9.862;2023-02-15T16:45:26;61.33;50.67;31.00
23240;PMS7003;11789;53.482;9.862;2023-02-15T16:47:57;59.33;48.00;29.67
23240;PMS7003;11789;53.482;9.862;2023-02-15T16:50:30;57.67;47.00;27.67